sensor_id;sensor_type;location;lat;lon;timestamp;pressure;altitude;pressure_sealevel;temperature;humidity
7180;BME280;3631;42.152;24.756;2023-02-10T00:00:31;101586.84;;;-3.14;77.30
7180;BME280;3631;42.152;24.756;2023-02-10T00:03:41;101586.94;;;-3.12;77.97
7180;BME280;3631;42.152;24.756;2023-02-10T00:06:31;101592.47;;;-3.05;77.41
7180;BME280;3631;42.152;24.756;2023-02-10T00:09:39;101592.25;;;-2.95;76.64
7180;BME280;3631;42.152;24.756;2023-02-10T00:12:45;101595.19;;;-3.16;77.74
7180;BME280;3631;42.152;24.756;2023-02-10T00:22:21;101596.03;;;-3.16;78.34
7180;BME280;3631;42.152;24.756;2023-02-10T00:25:18;101594.31;;;-3.17;79.01
7180;BME280;3631;42.152;24.756;2023-02-10T00:28:11;101587.81;;;-3.12;78.66
7180;BME280;3631;42.152;24.756;2023-02-10T00:31:23;101589.28;;;-3.30;79.52
7180;BME280;3631;42.152;24.756;2023-02-10T00:34:19;101575.75;;;-3.44;79.93
7180;BME280;3631;42.152;24.756;2023-02-10T00:37:29;101588.66;;;-3.26;79.12
7180;BME280;3631;42.152;24.756;2023-02-10T00:40:34;101573.47;;;-3.11;77.68
7180;BME280;3631;42.152;24.756;2023-02-10T00:43:26;101580.56;;;-3.06;77.43
7180;BME280;3631;42.152;24.756;2023-02-10T00:46:22;101571.00;;;-3.10;77.83
7180;BME280;3631;42.152;24.756;2023-02-10T00:48:57;101580.97;;;-3.13;78.44
7180;BME280;3631;42.152;24.756;2023-02-10T00:51:37;101576.28;;;-3.07;78.16
7180;BME280;3631;42.152;24.756;2023-02-10T00:54:19;101569.78;;;-3.02;77.82
7180;BME280;3631;42.152;24.756;2023-02-10T00:57:21;101574.00;;;-3.02;78.21
7180;BME280;3631;42.152;24.756;2023-02-10T01:00:21;101571.09;;;-3.08;78.02
7180;BME280;3631;42.152;24.756;2023-02-10T01:03:16;101576.09;;;-3.10;77.05
7180;BME280;3631;42.152;24.756;2023-02-10T01:06:17;101569.09;;;-2.99;76.42
7180;BME280;3631;42.152;24.756;2023-02-10T01:09:27;101575.84;;;-3.00;75.47
7180;BME280;3631;42.152;24.756;2023-02-10T01:12:25;101564.09;;;-2.98;75.54
7180;BME280;3631;42.152;24.756;2023-02-10T01:15:21;101558.59;;;-3.05;75.86
7180;BME280;3631;42.152;24.756;2023-02-10T01:18:44;101563.56;;;-2.92;75.18
7180;BME280;3631;42.152;24.756;2023-02-10T01:21:43;101555.06;;;-3.07;75.97
7180;BME280;3631;42.152;24.756;2023-02-10T01:24:48;101549.13;;;-3.08;75.86
7180;BME280;3631;42.152;24.756;2023-02-10T01:27:51;101551.59;;;-2.95;75.63
7180;BME280;3631;42.152;24.756;2023-02-10T01:30:51;101551.75;;;-3.06;75.89
7180;BME280;3631;42.152;24.756;2023-02-10T01:33:50;101547.00;;;-3.15;76.90
7180;BME280;3631;42.152;24.756;2023-02-10T01:36:44;101552.06;;;-3.15;76.85
7180;BME280;3631;42.152;24.756;2023-02-10T01:39:51;101546.72;;;-3.05;76.08
7180;BME280;3631;42.152;24.756;2023-02-10T01:42:49;101548.25;;;-3.08;76.42
7180;BME280;3631;42.152;24.756;2023-02-10T01:45:45;101548.59;;;-3.17;76.88
7180;BME280;3631;42.152;24.756;2023-02-10T01:48:50;101555.66;;;-3.26;77.87
7180;BME280;3631;42.152;24.756;2023-02-10T01:51:44;101546.75;;;-3.19;77.39
7180;BME280;3631;42.152;24.756;2023-02-10T01:55:02;101553.28;;;-3.23;77.92
7180;BME280;3631;42.152;24.756;2023-02-10T01:57:54;101552.94;;;-3.29;78.00
7180;BME280;3631;42.152;24.756;2023-02-10T02:00:47;101550.50;;;-3.13;78.18
7180;BME280;3631;42.152;24.756;2023-02-10T02:03:50;101548.25;;;-3.08;77.03
7180;BME280;3631;42.152;24.756;2023-02-10T02:06:42;101542.88;;;-3.13;77.12
7180;BME280;3631;42.152;24.756;2023-02-10T02:09:32;101542.88;;;-3.27;78.18
7180;BME280;3631;42.152;24.756;2023-02-10T02:13:06;101533.66;;;-3.25;77.79
7180;BME280;3631;42.152;24.756;2023-02-10T02:16:06;101528.69;;;-3.24;77.65
7180;BME280;3631;42.152;24.756;2023-02-10T02:19:04;101524.28;;;-3.26;78.28
7180;BME280;3631;42.152;24.756;2023-02-10T02:22:22;101523.00;;;-3.20;78.95
7180;BME280;3631;42.152;24.756;2023-02-10T02:29:04;101501.75;;;-3.64;82.55
7180;BME280;3631;42.152;24.756;2023-02-10T02:32:14;101519.75;;;-3.60;84.36
7180;BME280;3631;42.152;24.756;2023-02-10T02:35:04;101515.56;;;-3.59;85.21
7180;BME280;3631;42.152;24.756;2023-02-10T02:38:06;101519.91;;;-3.72;85.20
7180;BME280;3631;42.152;24.756;2023-02-10T02:41:03;101522.63;;;-3.69;85.71
7180;BME280;3631;42.152;24.756;2023-02-10T02:44:04;101521.25;;;-3.63;85.89
7180;BME280;3631;42.152;24.756;2023-02-10T02:47:07;101521.22;;;-3.78;86.87
7180;BME280;3631;42.152;24.756;2023-02-10T02:50:10;101509.34;;;-3.92;87.47
7180;BME280;3631;42.152;24.756;2023-02-10T02:53:15;101514.66;;;-3.75;86.76
7180;BME280;3631;42.152;24.756;2023-02-10T02:56:28;101516.13;;;-3.78;86.31
7180;BME280;3631;42.152;24.756;2023-02-10T02:59:31;101517.31;;;-3.73;85.29
7180;BME280;3631;42.152;24.756;2023-02-10T03:02:23;101512.91;;;-3.76;84.11
7180;BME280;3631;42.152;24.756;2023-02-10T03:05:32;101508.09;;;-3.99;84.54
7180;BME280;3631;42.152;24.756;2023-02-10T03:08:29;101508.75;;;-3.88;84.21
7180;BME280;3631;42.152;24.756;2023-02-10T03:11:24;101515.25;;;-3.79;83.82
7180;BME280;3631;42.152;24.756;2023-02-10T03:14:38;101512.44;;;-3.83;83.64
7180;BME280;3631;42.152;24.756;2023-02-10T03:17:32;101509.88;;;-3.83;83.62
7180;BME280;3631;42.152;24.756;2023-02-10T03:20:34;101513.38;;;-3.96;84.64
7180;BME280;3631;42.152;24.756;2023-02-10T03:23:23;101509.06;;;-3.97;85.66
7180;BME280;3631;42.152;24.756;2023-02-10T03:26:33;101505.66;;;-3.97;86.17
7180;BME280;3631;42.152;24.756;2023-02-10T03:33:03;101510.47;;;-4.15;86.71
7180;BME280;3631;42.152;24.756;2023-02-10T03:36:05;101508.13;;;-4.12;87.99
7180;BME280;3631;42.152;24.756;2023-02-10T03:38:58;101513.13;;;-4.27;87.93
7180;BME280;3631;42.152;24.756;2023-02-10T03:42:17;101503.63;;;-4.16;87.06
7180;BME280;3631;42.152;24.756;2023-02-10T03:45:14;101502.69;;;-4.18;86.30
7180;BME280;3631;42.152;24.756;2023-02-10T03:54:35;101499.28;;;-4.19;85.56
7180;BME280;3631;42.152;24.756;2023-02-10T03:57:50;101497.91;;;-4.27;87.47
7180;BME280;3631;42.152;24.756;2023-02-10T04:00:38;101463.25;;;-4.41;86.11
7180;BME280;3631;42.152;24.756;2023-02-10T04:03:31;101500.06;;;-4.33;86.52
7180;BME280;3631;42.152;24.756;2023-02-10T04:06:19;101489.38;;;-4.42;87.61
7180;BME280;3631;42.152;24.756;2023-02-10T04:09:12;101494.25;;;-4.45;88.90
7180;BME280;3631;42.152;24.756;2023-02-10T04:15:04;101499.19;;;-4.60;90.16
7180;BME280;3631;42.152;24.756;2023-02-10T04:18:03;101492.00;;;-4.67;91.43
7180;BME280;3631;42.152;24.756;2023-02-10T04:20:35;101494.44;;;-4.68;92.33
7180;BME280;3631;42.152;24.756;2023-02-10T04:23:14;101486.94;;;-4.67;91.91
7180;BME280;3631;42.152;24.756;2023-02-10T04:25:47;101488.97;;;-4.61;91.71
7180;BME280;3631;42.152;24.756;2023-02-10T04:28:22;101488.19;;;-4.60;91.97
7180;BME280;3631;42.152;24.756;2023-02-10T04:30:57;101490.47;;;-4.65;92.05
7180;BME280;3631;42.152;24.756;2023-02-10T04:33:29;101492.00;;;-4.67;92.07
7180;BME280;3631;42.152;24.756;2023-02-10T04:36:02;101493.75;;;-4.66;91.56
7180;BME280;3631;42.152;24.756;2023-02-10T04:38:36;101490.63;;;-4.62;90.33
7180;BME280;3631;42.152;24.756;2023-02-10T04:41:06;101491.03;;;-4.69;89.57
7180;BME280;3631;42.152;24.756;2023-02-10T04:43:39;101494.81;;;-4.62;87.66
7180;BME280;3631;42.152;24.756;2023-02-10T04:46:09;101483.22;;;-4.72;87.89
7180;BME280;3631;42.152;24.756;2023-02-10T04:48:47;101498.63;;;-4.69;87.25
7180;BME280;3631;42.152;24.756;2023-02-10T04:51:26;101502.31;;;-4.90;88.31
7180;BME280;3631;42.152;24.756;2023-02-10T04:54:05;101504.97;;;-4.89;88.55
7180;BME280;3631;42.152;24.756;2023-02-10T04:56:54;101506.00;;;-4.85;88.21
7180;BME280;3631;42.152;24.756;2023-02-10T05:00:05;101505.53;;;-4.80;87.72
7180;BME280;3631;42.152;24.756;2023-02-10T05:02:57;101510.22;;;-4.86;88.96
7180;BME280;3631;42.152;24.756;2023-02-10T05:09:13;101507.19;;;-4.80;88.46
7180;BME280;3631;42.152;24.756;2023-02-10T05:12:03;101500.94;;;-4.85;89.73
7180;BME280;3631;42.152;24.756;2023-02-10T05:14:50;101498.50;;;-4.84;89.65
7180;BME280;3631;42.152;24.756;2023-02-10T05:17:36;101500.09;;;-4.86;89.44
7180;BME280;3631;42.152;24.756;2023-02-10T05:20:50;101502.31;;;-4.90;89.11
7180;BME280;3631;42.152;24.756;2023-02-10T05:23:58;101443.06;;;-5.32;89.60
7180;BME280;3631;42.152;24.756;2023-02-10T05:26:57;101500.19;;;-4.97;90.48
7180;BME280;3631;42.152;24.756;2023-02-10T05:30:00;101506.19;;;-4.95;90.32
7180;BME280;3631;42.152;24.756;2023-02-10T05:32:49;101503.88;;;-4.92;90.71
7180;BME280;3631;42.152;24.756;2023-02-10T05:35:50;101509.84;;;-4.79;90.07
7180;BME280;3631;42.152;24.756;2023-02-10T05:38:38;101501.66;;;-4.74;89.07
7180;BME280;3631;42.152;24.756;2023-02-10T05:41:48;101505.84;;;-4.88;89.57
7180;BME280;3631;42.152;24.756;2023-02-10T05:44:49;101511.78;;;-4.74;90.06
7180;BME280;3631;42.152;24.756;2023-02-10T05:47:43;101518.69;;;-4.59;88.13
7180;BME280;3631;42.152;24.756;2023-02-10T05:50:21;101520.94;;;-4.50;86.67
7180;BME280;3631;42.152;24.756;2023-02-10T05:53:19;101528.25;;;-4.42;86.45
7180;BME280;3631;42.152;24.756;2023-02-10T05:56:07;101527.66;;;-4.38;86.03
7180;BME280;3631;42.152;24.756;2023-02-10T05:58:43;101530.28;;;-4.36;85.06
7180;BME280;3631;42.152;24.756;2023-02-10T06:01:33;101532.34;;;-4.44;84.71
7180;BME280;3631;42.152;24.756;2023-02-10T06:04:28;101462.59;;;-4.78;85.32
7180;BME280;3631;42.152;24.756;2023-02-10T06:07:25;101532.91;;;-4.21;83.29
7180;BME280;3631;42.152;24.756;2023-02-10T06:11:00;101538.91;;;-4.06;81.42
7180;BME280;3631;42.152;24.756;2023-02-10T06:13:53;101544.38;;;-4.00;81.68
7180;BME280;3631;42.152;24.756;2023-02-10T06:16:54;101547.16;;;-3.82;81.09
7180;BME280;3631;42.152;24.756;2023-02-10T06:20:07;101552.63;;;-2.62;77.87
7180;BME280;3631;42.152;24.756;2023-02-10T06:23:02;101549.56;;;-0.45;66.60
7180;BME280;3631;42.152;24.756;2023-02-10T06:26:05;101559.34;;;1.77;57.20
7180;BME280;3631;42.152;24.756;2023-02-10T06:28:59;101565.31;;;3.95;49.91
7180;BME280;3631;42.152;24.756;2023-02-10T06:31:59;101565.34;;;4.85;45.87
7180;BME280;3631;42.152;24.756;2023-02-10T06:35:00;101578.16;;;4.83;44.51
7180;BME280;3631;42.152;24.756;2023-02-10T06:38:04;101567.28;;;4.04;45.50
7180;BME280;3631;42.152;24.756;2023-02-10T06:40:58;101569.44;;;2.41;48.17
7180;BME280;3631;42.152;24.756;2023-02-10T06:43:49;101567.09;;;1.58;49.47
7180;BME280;3631;42.152;24.756;2023-02-10T06:47:08;101573.03;;;0.96;51.90
7180;BME280;3631;42.152;24.756;2023-02-10T06:53:00;101568.75;;;-0.18;55.26
7180;BME280;3631;42.152;24.756;2023-02-10T06:55:58;101564.66;;;-0.32;57.28
7180;BME280;3631;42.152;24.756;2023-02-10T06:59:09;101560.28;;;-0.52;57.37
7180;BME280;3631;42.152;24.756;2023-02-10T07:02:11;101562.91;;;-0.51;58.25
7180;BME280;3631;42.152;24.756;2023-02-10T07:05:13;101515.13;;;-0.89;58.63
7180;BME280;3631;42.152;24.756;2023-02-10T07:08:10;101556.94;;;-0.51;59.15
7180;BME280;3631;42.152;24.756;2023-02-10T07:11:33;101554.75;;;-0.61;58.80
7180;BME280;3631;42.152;24.756;2023-02-10T07:14:40;101553.28;;;-0.56;58.71
7180;BME280;3631;42.152;24.756;2023-02-10T07:17:42;101552.94;;;-0.46;59.31
7180;BME280;3631;42.152;24.756;2023-02-10T07:20:40;101554.81;;;-0.42;58.59
7180;BME280;3631;42.152;24.756;2023-02-10T07:23:43;101564.72;;;-0.30;58.54
7180;BME280;3631;42.152;24.756;2023-02-10T07:26:51;101576.56;;;-0.15;58.86
7180;BME280;3631;42.152;24.756;2023-02-10T07:29:51;101563.34;;;-0.06;57.62
7180;BME280;3631;42.152;24.756;2023-02-10T07:35:44;101568.38;;;-0.08;56.96
7180;BME280;3631;42.152;24.756;2023-02-10T07:38:46;101566.38;;;0.05;57.08
7180;BME280;3631;42.152;24.756;2023-02-10T07:41:50;101565.91;;;-0.24;57.44
7180;BME280;3631;42.152;24.756;2023-02-10T07:45:03;101553.97;;;-0.25;57.91
7180;BME280;3631;42.152;24.756;2023-02-10T07:48:09;101556.31;;;-0.10;57.72
7180;BME280;3631;42.152;24.756;2023-02-10T07:51:08;101561.25;;;-0.15;57.40
7180;BME280;3631;42.152;24.756;2023-02-10T07:54:15;101551.78;;;-0.35;57.65
7180;BME280;3631;42.152;24.756;2023-02-10T07:57:15;101546.22;;;-0.44;58.19
7180;BME280;3631;42.152;24.756;2023-02-10T08:00:37;101557.50;;;-0.21;57.79
7180;BME280;3631;42.152;24.756;2023-02-10T08:03:29;101557.59;;;-0.20;57.43
7180;BME280;3631;42.152;24.756;2023-02-10T08:06:40;101550.28;;;-0.30;57.99
7180;BME280;3631;42.152;24.756;2023-02-10T08:09:30;101554.31;;;-0.17;57.06
7180;BME280;3631;42.152;24.756;2023-02-10T08:12:20;101556.84;;;-0.17;58.08
7180;BME280;3631;42.152;24.756;2023-02-10T08:15:07;101560.25;;;0.01;62.56
7180;BME280;3631;42.152;24.756;2023-02-10T08:17:45;101558.47;;;-0.02;58.31
7180;BME280;3631;42.152;24.756;2023-02-10T08:20:26;101553.47;;;0.02;57.83
7180;BME280;3631;42.152;24.756;2023-02-10T08:23:27;101548.81;;;0.11;57.65
7180;BME280;3631;42.152;24.756;2023-02-10T08:26:05;101552.97;;;0.09;57.29
7180;BME280;3631;42.152;24.756;2023-02-10T08:28:36;101523.75;;;-0.16;56.79
7180;BME280;3631;42.152;24.756;2023-02-10T08:31:08;101548.25;;;-0.02;57.28
7180;BME280;3631;42.152;24.756;2023-02-10T08:33:40;101552.75;;;0.04;57.54
7180;BME280;3631;42.152;24.756;2023-02-10T08:36:15;101557.78;;;0.03;56.80
7180;BME280;3631;42.152;24.756;2023-02-10T08:38:46;101555.09;;;-0.01;57.27
7180;BME280;3631;42.152;24.756;2023-02-10T08:41:19;101540.31;;;0.12;57.39
7180;BME280;3631;42.152;24.756;2023-02-10T08:43:51;101544.53;;;0.29;57.03
7180;BME280;3631;42.152;24.756;2023-02-10T08:46:22;101542.03;;;0.30;56.98
7180;BME280;3631;42.152;24.756;2023-02-10T08:48:54;101545.53;;;0.32;56.24
7180;BME280;3631;42.152;24.756;2023-02-10T08:51:26;101542.19;;;0.33;56.33
7180;BME280;3631;42.152;24.756;2023-02-10T08:54:01;101553.13;;;0.31;56.63
7180;BME280;3631;42.152;24.756;2023-02-10T08:56:30;101545.34;;;0.28;56.33
7180;BME280;3631;42.152;24.756;2023-02-10T08:59:04;101544.78;;;0.16;56.74
7180;BME280;3631;42.152;24.756;2023-02-10T09:01:34;101543.25;;;0.19;57.20
7180;BME280;3631;42.152;24.756;2023-02-10T09:04:06;101529.06;;;0.26;56.80
7180;BME280;3631;42.152;24.756;2023-02-10T09:06:38;101535.91;;;0.27;56.69
7180;BME280;3631;42.152;24.756;2023-02-10T09:09:12;101527.78;;;0.16;55.96
7180;BME280;3631;42.152;24.756;2023-02-10T09:11:40;101526.34;;;0.23;56.66
7180;BME280;3631;42.152;24.756;2023-02-10T09:14:09;101534.06;;;0.42;56.03
7180;BME280;3631;42.152;24.756;2023-02-10T09:16:43;101537.59;;;0.46;55.46
7180;BME280;3631;42.152;24.756;2023-02-10T09:19:19;101524.63;;;0.60;54.88
7180;BME280;3631;42.152;24.756;2023-02-10T09:21:49;101528.72;;;0.57;54.71
7180;BME280;3631;42.152;24.756;2023-02-10T09:24:19;101522.88;;;0.79;54.66
7180;BME280;3631;42.152;24.756;2023-02-10T09:26:50;101512.38;;;0.72;54.26
7180;BME280;3631;42.152;24.756;2023-02-10T09:29:19;101514.38;;;0.80;53.83
7180;BME280;3631;42.152;24.756;2023-02-10T09:31:52;101501.88;;;0.86;53.99
7180;BME280;3631;42.152;24.756;2023-02-10T09:34:23;101500.19;;;0.86;54.08
7180;BME280;3631;42.152;24.756;2023-02-10T09:36:57;101503.94;;;0.94;53.90
7180;BME280;3631;42.152;24.756;2023-02-10T09:39:27;101479.22;;;0.95;53.47
7180;BME280;3631;42.152;24.756;2023-02-10T09:42:06;101501.81;;;1.05;53.24
7180;BME280;3631;42.152;24.756;2023-02-10T09:44:43;101494.34;;;1.09;52.98
7180;BME280;3631;42.152;24.756;2023-02-10T09:47:27;101498.81;;;1.15;52.07
7180;BME280;3631;42.152;24.756;2023-02-10T09:50:28;101483.09;;;1.27;52.12
7180;BME280;3631;42.152;24.756;2023-02-10T09:53:10;101476.72;;;1.38;52.12
7180;BME280;3631;42.152;24.756;2023-02-10T09:55:46;101472.97;;;1.51;52.31
7180;BME280;3631;42.152;24.756;2023-02-10T09:58:24;101470.66;;;1.57;51.17
7180;BME280;3631;42.152;24.756;2023-02-10T10:00:57;101470.53;;;1.54;52.22
7180;BME280;3631;42.152;24.756;2023-02-10T10:03:32;101457.94;;;1.60;52.00
7180;BME280;3631;42.152;24.756;2023-02-10T10:06:16;101449.78;;;1.68;50.67
7180;BME280;3631;42.152;24.756;2023-02-10T10:08:57;101451.28;;;1.63;50.04
7180;BME280;3631;42.152;24.756;2023-02-10T10:11:32;101440.16;;;1.63;48.77
7180;BME280;3631;42.152;24.756;2023-02-10T10:14:17;101434.22;;;1.64;49.90
7180;BME280;3631;42.152;24.756;2023-02-10T10:17:19;101429.84;;;1.61;49.86
7180;BME280;3631;42.152;24.756;2023-02-10T10:20:48;101428.38;;;1.66;49.61
7180;BME280;3631;42.152;24.756;2023-02-10T10:23:39;101434.91;;;1.82;49.50
7180;BME280;3631;42.152;24.756;2023-02-10T10:26:22;101412.28;;;1.70;48.65
7180;BME280;3631;42.152;24.756;2023-02-10T10:29:02;101421.69;;;1.94;48.90
7180;BME280;3631;42.152;24.756;2023-02-10T10:31:34;101425.03;;;1.91;48.59
7180;BME280;3631;42.152;24.756;2023-02-10T10:34:12;101426.88;;;1.95;48.07
7180;BME280;3631;42.152;24.756;2023-02-10T10:36:43;101414.88;;;1.94;47.92
7180;BME280;3631;42.152;24.756;2023-02-10T10:39:15;101410.25;;;2.08;48.10
7180;BME280;3631;42.152;24.756;2023-02-10T10:41:46;101404.88;;;2.00;48.11
7180;BME280;3631;42.152;24.756;2023-02-10T10:44:17;101400.13;;;1.87;47.54
7180;BME280;3631;42.152;24.756;2023-02-10T10:46:47;101398.53;;;1.91;48.02
7180;BME280;3631;42.152;24.756;2023-02-10T10:49:17;101397.28;;;2.03;48.58
7180;BME280;3631;42.152;24.756;2023-02-10T10:51:44;101390.47;;;2.04;47.78
7180;BME280;3631;42.152;24.756;2023-02-10T10:54:19;101389.06;;;2.12;47.28
7180;BME280;3631;42.152;24.756;2023-02-10T10:57:11;101391.56;;;2.10;47.95
7180;BME280;3631;42.152;24.756;2023-02-10T11:00:30;101391.94;;;2.21;47.37
7180;BME280;3631;42.152;24.756;2023-02-10T11:03:29;101378.78;;;2.36;46.91
7180;BME280;3631;42.152;24.756;2023-02-10T11:06:44;101375.72;;;2.46;45.71
7180;BME280;3631;42.152;24.756;2023-02-10T11:20:22;101359.25;;;2.39;45.95
7180;BME280;3631;42.152;24.756;2023-02-10T11:23:56;101359.41;;;2.69;44.84
7180;BME280;3631;42.152;24.756;2023-02-10T11:27:05;101356.91;;;2.71;44.67
7180;BME280;3631;42.152;24.756;2023-02-10T11:30:22;101347.88;;;2.57;45.25
7180;BME280;3631;42.152;24.756;2023-02-10T11:33:31;101341.31;;;2.65;46.43
7180;BME280;3631;42.152;24.756;2023-02-10T11:36:36;101348.50;;;2.76;46.00
7180;BME280;3631;42.152;24.756;2023-02-10T11:46:20;101332.06;;;2.97;44.58
7180;BME280;3631;42.152;24.756;2023-02-10T11:49:22;101325.44;;;3.03;44.73
7180;BME280;3631;42.152;24.756;2023-02-10T11:52:19;101317.09;;;3.10;43.92
7180;BME280;3631;42.152;24.756;2023-02-10T11:55:17;101308.53;;;3.10;44.13
7180;BME280;3631;42.152;24.756;2023-02-10T11:58:31;101315.75;;;3.23;43.34
7180;BME280;3631;42.152;24.756;2023-02-10T12:08:40;101298.97;;;3.06;43.47
7180;BME280;3631;42.152;24.756;2023-02-10T12:11:44;101296.03;;;2.92;44.05
7180;BME280;3631;42.152;24.756;2023-02-10T12:15:11;101288.28;;;2.90;44.40
7180;BME280;3631;42.152;24.756;2023-02-10T12:18:33;101286.81;;;3.27;43.02
7180;BME280;3631;42.152;24.756;2023-02-10T12:22:03;101278.03;;;3.20;43.07
7180;BME280;3631;42.152;24.756;2023-02-10T12:28:43;101272.97;;;3.22;42.58
7180;BME280;3631;42.152;24.756;2023-02-10T12:31:35;101269.78;;;3.31;43.20
7180;BME280;3631;42.152;24.756;2023-02-10T12:34:30;101268.19;;;3.34;42.73
7180;BME280;3631;42.152;24.756;2023-02-10T12:37:30;101259.56;;;3.32;43.32
7180;BME280;3631;42.152;24.756;2023-02-10T12:40:23;101253.75;;;3.39;43.03
7180;BME280;3631;42.152;24.756;2023-02-10T12:43:09;101258.41;;;3.52;42.22
7180;BME280;3631;42.152;24.756;2023-02-10T12:46:02;101254.09;;;3.51;42.40
7180;BME280;3631;42.152;24.756;2023-02-10T12:48:43;101255.66;;;3.45;42.41
7180;BME280;3631;42.152;24.756;2023-02-10T12:51:43;101253.13;;;3.46;42.40
7180;BME280;3631;42.152;24.756;2023-02-10T12:54:41;101246.22;;;3.44;42.46
7180;BME280;3631;42.152;24.756;2023-02-10T12:57:33;101248.09;;;3.51;42.32
7180;BME280;3631;42.152;24.756;2023-02-10T13:00:31;101216.13;;;3.38;41.82
7180;BME280;3631;42.152;24.756;2023-02-10T13:03:42;101236.28;;;3.56;41.49
7180;BME280;3631;42.152;24.756;2023-02-10T13:06:33;101248.38;;;3.60;41.32
7180;BME280;3631;42.152;24.756;2023-02-10T13:09:30;101250.81;;;3.55;40.92
7180;BME280;3631;42.152;24.756;2023-02-10T13:12:30;101246.69;;;3.31;40.46
7180;BME280;3631;42.152;24.756;2023-02-10T13:15:40;101238.72;;;3.21;40.55
7180;BME280;3631;42.152;24.756;2023-02-10T13:28:40;101232.16;;;3.62;40.45
7180;BME280;3631;42.152;24.756;2023-02-10T13:32:05;101234.66;;;3.59;39.77
7180;BME280;3631;42.152;24.756;2023-02-10T13:35:12;101237.34;;;3.64;39.74
7180;BME280;3631;42.152;24.756;2023-02-10T13:38:20;101237.22;;;3.59;39.24
7180;BME280;3631;42.152;24.756;2023-02-10T13:41:29;101224.22;;;3.53;39.76
7180;BME280;3631;42.152;24.756;2023-02-10T13:44:25;101224.31;;;3.56;38.85
7180;BME280;3631;42.152;24.756;2023-02-10T13:47:19;101225.19;;;3.57;38.55
7180;BME280;3631;42.152;24.756;2023-02-10T13:50:00;101222.25;;;3.76;38.71
7180;BME280;3631;42.152;24.756;2023-02-10T13:52:51;101222.22;;;3.75;38.32
7180;BME280;3631;42.152;24.756;2023-02-10T13:55:45;101233.25;;;3.71;38.43
7180;BME280;3631;42.152;24.756;2023-02-10T13:58:47;101233.63;;;3.86;37.89
7180;BME280;3631;42.152;24.756;2023-02-10T14:01:45;101230.28;;;3.88;37.86
7180;BME280;3631;42.152;24.756;2023-02-10T14:04:39;101231.69;;;3.77;37.75
7180;BME280;3631;42.152;24.756;2023-02-10T14:07:34;101220.56;;;3.77;37.54
7180;BME280;3631;42.152;24.756;2023-02-10T14:10:32;101218.31;;;3.89;37.58
7180;BME280;3631;42.152;24.756;2023-02-10T14:13:23;101216.47;;;3.85;37.38
7180;BME280;3631;42.152;24.756;2023-02-10T14:19:19;101211.91;;;4.06;37.52
7180;BME280;3631;42.152;24.756;2023-02-10T14:21:52;101213.56;;;4.04;37.68
7180;BME280;3631;42.152;24.756;2023-02-10T14:24:28;101211.59;;;3.95;37.44
7180;BME280;3631;42.152;24.756;2023-02-10T14:27:10;101215.97;;;3.98;37.58
7180;BME280;3631;42.152;24.756;2023-02-10T14:30:00;101211.31;;;3.83;38.26
7180;BME280;3631;42.152;24.756;2023-02-10T14:32:50;101216.41;;;3.82;38.12
7180;BME280;3631;42.152;24.756;2023-02-10T14:35:51;101209.72;;;3.88;38.83
7180;BME280;3631;42.152;24.756;2023-02-10T14:38:37;101212.44;;;3.93;38.21
7180;BME280;3631;42.152;24.756;2023-02-10T14:41:26;101206.94;;;3.79;38.54
7180;BME280;3631;42.152;24.756;2023-02-10T14:44:26;101206.16;;;3.82;38.17
7180;BME280;3631;42.152;24.756;2023-02-10T14:47:48;101188.91;;;3.78;38.49
7180;BME280;3631;42.152;24.756;2023-02-10T14:50:37;101178.28;;;3.64;38.86
7180;BME280;3631;42.152;24.756;2023-02-10T14:53:42;101206.06;;;3.79;38.88
7180;BME280;3631;42.152;24.756;2023-02-10T14:56:26;101204.91;;;3.68;39.49
7180;BME280;3631;42.152;24.756;2023-02-10T15:02:52;101211.47;;;3.89;38.13
7180;BME280;3631;42.152;24.756;2023-02-10T15:05:47;101204.72;;;3.93;38.17
7180;BME280;3631;42.152;24.756;2023-02-10T15:08:50;101196.63;;;3.78;38.02
7180;BME280;3631;42.152;24.756;2023-02-10T15:11:51;101206.25;;;3.86;38.74
7180;BME280;3631;42.152;24.756;2023-02-10T15:15:24;101208.63;;;3.79;38.89
7180;BME280;3631;42.152;24.756;2023-02-10T15:18:27;101214.94;;;3.58;39.04
7180;BME280;3631;42.152;24.756;2023-02-10T15:21:36;101214.91;;;3.57;39.26
7180;BME280;3631;42.152;24.756;2023-02-10T15:24:54;101213.31;;;3.60;38.50
7180;BME280;3631;42.152;24.756;2023-02-10T15:27:53;101209.88;;;3.61;38.85
7180;BME280;3631;42.152;24.756;2023-02-10T15:30:57;101215.06;;;3.63;38.42
7180;BME280;3631;42.152;24.756;2023-02-10T15:34:02;101212.16;;;3.49;39.13
7180;BME280;3631;42.152;24.756;2023-02-10T15:37:03;101218.22;;;3.53;39.22
7180;BME280;3631;42.152;24.756;2023-02-10T15:46:32;101212.63;;;3.36;39.15
7180;BME280;3631;42.152;24.756;2023-02-10T15:49:41;101218.53;;;3.34;39.02
7180;BME280;3631;42.152;24.756;2023-02-10T15:52:56;101216.13;;;3.38;39.90
7180;BME280;3631;42.152;24.756;2023-02-10T15:56:05;101218.31;;;3.24;40.27
7180;BME280;3631;42.152;24.756;2023-02-10T15:59:04;101215.69;;;2.93;41.21
7180;BME280;3631;42.152;24.756;2023-02-10T16:02:11;101224.88;;;2.58;41.65
7180;BME280;3631;42.152;24.756;2023-02-10T16:05:07;101223.44;;;2.39;43.24
7180;BME280;3631;42.152;24.756;2023-02-10T16:08:11;101224.88;;;2.58;42.77
7180;BME280;3631;42.152;24.756;2023-02-10T16:11:15;101201.34;;;2.43;42.71
7180;BME280;3631;42.152;24.756;2023-02-10T16:14:14;101231.22;;;2.42;42.68
7180;BME280;3631;42.152;24.756;2023-02-10T16:17:25;101232.19;;;2.46;43.00
7180;BME280;3631;42.152;24.756;2023-02-10T16:20:24;101243.97;;;2.41;43.37
7180;BME280;3631;42.152;24.756;2023-02-10T16:26:59;101252.78;;;2.22;44.24
7180;BME280;3631;42.152;24.756;2023-02-10T16:30:19;101254.13;;;2.38;44.93
7180;BME280;3631;42.152;24.756;2023-02-10T16:33:14;101244.09;;;2.44;44.37
7180;BME280;3631;42.152;24.756;2023-02-10T16:36:12;101255.94;;;2.40;45.02
7180;BME280;3631;42.152;24.756;2023-02-10T16:39:10;101244.34;;;2.26;44.22
7180;BME280;3631;42.152;24.756;2023-02-10T16:42:05;101263.50;;;2.37;44.83
7180;BME280;3631;42.152;24.756;2023-02-10T16:45:09;101259.94;;;2.32;45.09
7180;BME280;3631;42.152;24.756;2023-02-10T16:48:11;101240.09;;;2.27;45.63
7180;BME280;3631;42.152;24.756;2023-02-10T16:51:10;101257.28;;;2.29;45.98
7180;BME280;3631;42.152;24.756;2023-02-10T16:54:10;101264.47;;;2.14;45.65
7180;BME280;3631;42.152;24.756;2023-02-10T16:57:12;101260.38;;;1.70;46.62